createdAt,value
2022-12-03T00:01:32.878Z,101648.84
2022-12-03T00:04:04.471Z,101671.41
2022-12-03T00:06:34.916Z,101636.31
2022-12-03T00:09:26.297Z,101685.41
2022-12-03T00:12:01.581Z,101672.97
2022-12-03T00:14:44.221Z,101634.25
2022-12-03T00:17:15.339Z,101635.66
2022-12-03T00:19:43.227Z,101674.50
2022-12-03T00:22:13.538Z,101653.72
2022-12-03T00:24:43.575Z,101683.38
2022-12-03T00:27:13.221Z,101658.19
2022-12-03T00:29:42.454Z,101668.25
2022-12-03T00:32:12.000Z,101649.25
2022-12-03T00:34:41.473Z,101689.00
2022-12-03T00:37:10.901Z,101680.09
2022-12-03T00:39:37.895Z,101694.16
2022-12-03T00:42:07.911Z,101687.97
2022-12-03T00:44:38.269Z,101675.16
2022-12-03T00:47:06.726Z,101662.19
2022-12-03T00:49:36.125Z,101694.00
2022-12-03T00:52:03.149Z,101676.88
2022-12-03T00:54:32.210Z,101693.16
2022-12-03T00:57:01.838Z,101686.19
2022-12-03T00:59:32.533Z,101674.00
2022-12-03T01:01:59.684Z,101699.34
2022-12-03T01:04:38.286Z,101685.59
2022-12-03T01:07:12.911Z,101718.59
2022-12-03T01:09:43.045Z,101700.88
2022-12-03T01:12:14.979Z,101693.91
2022-12-03T01:14:49.525Z,101677.06
2022-12-03T01:17:19.091Z,101698.41
2022-12-03T01:19:48.453Z,101660.66
2022-12-03T01:22:15.949Z,101665.59
2022-12-03T01:24:43.253Z,101712.47
2022-12-03T01:27:10.712Z,101708.50
2022-12-03T01:29:38.970Z,101695.63
2022-12-03T01:32:19.807Z,101688.41
2022-12-03T01:34:55.035Z,101684.38
2022-12-03T01:37:26.993Z,101712.47
2022-12-03T01:39:57.535Z,101693.56
2022-12-03T01:42:36.938Z,101729.16
2022-12-03T01:45:08.062Z,101686.94
2022-12-03T01:47:39.047Z,101699.97
2022-12-03T01:50:24.211Z,101698.22
2022-12-03T01:52:52.237Z,101698.22
2022-12-03T01:55:25.684Z,101724.06
2022-12-03T01:57:59.270Z,101707.09
2022-12-03T02:00:27.411Z,101711.09
2022-12-03T02:02:57.992Z,101716.59
2022-12-03T02:05:28.279Z,101713.03
2022-12-03T02:07:55.923Z,101714.13
2022-12-03T02:10:30.852Z,101715.97
2022-12-03T02:13:08.755Z,101706.06
2022-12-03T02:15:37.031Z,101714.59
2022-12-03T02:18:04.190Z,101708.50
2022-12-03T02:20:37.255Z,101719.16
2022-12-03T02:23:42.649Z,101708.16
2022-12-03T02:26:10.093Z,101734.19
2022-12-03T02:28:38.302Z,101736.03
2022-12-03T02:31:06.679Z,101722.06
2022-12-03T02:33:33.737Z,101711.94
2022-12-03T02:36:03.739Z,101729.09
2022-12-03T02:38:33.641Z,101745.59
2022-12-03T02:41:05.112Z,101731.63
2022-12-03T02:43:32.434Z,101737.88
2022-12-03T02:46:02.604Z,101730.00
2022-12-03T02:48:34.861Z,101747.75
2022-12-03T02:51:07.132Z,101708.06
2022-12-03T02:53:47.596Z,101729.63
2022-12-03T02:56:20.193Z,101724.69
2022-12-03T02:58:49.976Z,101740.13
2022-12-03T03:01:18.182Z,101731.41
2022-12-03T03:03:47.311Z,101727.28
2022-12-03T03:06:15.002Z,101737.56
2022-12-03T03:08:43.263Z,101734.94
2022-12-03T03:11:11.257Z,101744.50
2022-12-03T03:13:39.358Z,101744.50
2022-12-03T03:16:08.212Z,101714.69
2022-12-03T03:18:35.818Z,101734.47
2022-12-03T03:21:03.984Z,101729.31
2022-12-03T03:23:31.332Z,101739.91
2022-12-03T03:26:06.379Z,101740.50
2022-12-03T03:28:38.369Z,101737.53
2022-12-03T03:31:07.423Z,101729.03
2022-12-03T03:33:35.171Z,101756.81
2022-12-03T03:36:02.871Z,101740.28
2022-12-03T03:38:30.870Z,101764.84
2022-12-03T03:41:00.318Z,101740.44
2022-12-03T03:43:30.174Z,101744.00
2022-12-03T03:45:57.460Z,101747.28
2022-12-03T03:48:24.720Z,101764.78
2022-12-03T03:50:53.717Z,101750.31
2022-12-03T03:53:22.349Z,101725.84
2022-12-03T03:55:50.093Z,101772.00
2022-12-03T03:58:17.310Z,101757.56
2022-12-03T04:00:45.638Z,101745.00
2022-12-03T04:03:13.130Z,101759.81
2022-12-03T04:05:40.385Z,101762.09
2022-12-03T04:08:07.402Z,101765.81
2022-12-03T04:10:53.029Z,101763.97
2022-12-03T04:13:20.037Z,101760.28
2022-12-03T04:15:48.349Z,101756.88
2022-12-03T04:18:34.668Z,101765.38
2022-12-03T04:21:20.232Z,101769.69
2022-12-03T04:23:47.232Z,101777.47
2022-12-03T04:26:33.275Z,101774.59
2022-12-03T04:29:00.411Z,101781.41
2022-12-03T04:31:46.078Z,101771.25
2022-12-03T04:34:32.251Z,101779.06
2022-12-03T04:36:59.393Z,101779.53
2022-12-03T04:39:26.457Z,101770.09
2022-12-03T04:41:53.516Z,101782.44
2022-12-03T04:44:38.686Z,101780.00
2022-12-03T04:47:08.435Z,101789.38
2022-12-03T04:49:37.466Z,101775.75
2022-12-03T04:52:04.897Z,101792.06
2022-12-03T04:54:31.902Z,101792.19
2022-12-03T04:56:59.004Z,101773.16
2022-12-03T04:59:26.227Z,101779.72
2022-12-03T05:01:53.388Z,101795.31
2022-12-03T05:04:20.391Z,101792.78
2022-12-03T05:06:47.522Z,101799.50
2022-12-03T05:09:14.678Z,101795.97
2022-12-03T05:11:42.802Z,101798.56
2022-12-03T05:14:12.089Z,101805.50
2022-12-03T05:16:40.118Z,101817.34
2022-12-03T05:19:08.988Z,101838.16
2022-12-03T05:21:36.162Z,101812.00
2022-12-03T05:24:03.972Z,101824.13
2022-12-03T05:26:31.233Z,101821.59
2022-12-03T05:28:58.473Z,101845.03
2022-12-03T05:31:25.543Z,101839.94
2022-12-03T05:33:52.645Z,101842.44
2022-12-03T05:36:19.609Z,101825.34
2022-12-03T05:38:46.667Z,101845.03
2022-12-03T05:41:32.193Z,101839.16
2022-12-03T05:43:59.259Z,101841.56
2022-12-03T05:46:26.385Z,101843.41
2022-12-03T05:48:53.410Z,101852.59
2022-12-03T05:51:20.407Z,101849.31
2022-12-03T05:53:48.873Z,101843.75
2022-12-03T05:56:15.872Z,101871.56
2022-12-03T05:58:43.660Z,101849.16
2022-12-03T06:01:10.656Z,101847.38
2022-12-03T06:03:37.782Z,101838.84
2022-12-03T06:06:05.117Z,101842.31
2022-12-03T06:08:32.104Z,101843.75
2022-12-03T06:10:59.166Z,101856.66
2022-12-03T06:13:26.135Z,101845.97
2022-12-03T06:15:53.173Z,101847.81
2022-12-03T06:18:20.383Z,101843.97
2022-12-03T06:20:47.338Z,101852.59
2022-12-03T06:23:14.306Z,101855.47
2022-12-03T06:25:41.258Z,101861.22
2022-12-03T06:28:11.216Z,101869.72
2022-12-03T06:30:38.269Z,101839.38
2022-12-03T06:33:05.235Z,101861.84
2022-12-03T06:35:32.752Z,101843.19
2022-12-03T06:37:59.822Z,101855.63
2022-12-03T06:40:29.245Z,101852.91
2022-12-03T06:42:56.242Z,101853.63
2022-12-03T06:45:23.415Z,101854.84
2022-12-03T06:47:50.437Z,101850.28
2022-12-03T06:50:17.529Z,101853.38
2022-12-03T06:52:44.566Z,101841.88
2022-12-03T06:55:11.582Z,101841.66
2022-12-03T06:57:39.639Z,101824.88
2022-12-03T07:00:08.983Z,101851.22
2022-12-03T07:02:36.492Z,101823.56
2022-12-03T07:05:04.049Z,101837.03
2022-12-03T07:07:31.700Z,101844.41
2022-12-03T07:10:02.024Z,101822.47
2022-12-03T07:12:30.420Z,101847.34
2022-12-03T07:14:57.582Z,101842.00
2022-12-03T07:17:24.580Z,101855.47
2022-12-03T07:19:51.529Z,101831.25
2022-12-03T07:22:18.878Z,101853.84
2022-12-03T07:24:46.290Z,101850.66
2022-12-03T07:27:13.926Z,101849.91
2022-12-03T07:29:42.294Z,101828.00
2022-12-03T07:32:09.911Z,101850.09
2022-12-03T07:34:37.712Z,101842.13
2022-12-03T07:37:05.508Z,101829.97
2022-12-03T07:39:33.048Z,101855.31
2022-12-03T07:42:03.968Z,101832.47
2022-12-03T07:44:34.730Z,101815.91
2022-12-03T07:47:22.976Z,101830.75
2022-12-03T07:49:50.718Z,101840.00
2022-12-03T07:52:21.122Z,101844.59
2022-12-03T07:54:53.713Z,101838.00
2022-12-03T07:58:43.027Z,101834.09
2022-12-03T08:01:41.315Z,101829.06
2022-12-03T08:04:14.618Z,101832.22
2022-12-03T08:06:43.172Z,101837.81
2022-12-03T08:09:15.776Z,101846.91
2022-12-03T08:11:48.010Z,101853.44
2022-12-03T08:14:19.761Z,101845.78
2022-12-03T08:16:49.492Z,101821.13
2022-12-03T08:19:21.966Z,101831.56
2022-12-03T08:21:50.629Z,101829.50
2022-12-03T08:24:21.798Z,101818.78
2022-12-03T08:26:50.534Z,101829.56
2022-12-03T08:29:20.819Z,101827.94
2022-12-03T08:31:52.421Z,101818.00
2022-12-03T08:34:26.695Z,101829.78
2022-12-03T08:37:07.056Z,101832.53
2022-12-03T08:39:39.875Z,101816.03
2022-12-03T08:42:31.425Z,101819.34
2022-12-03T08:45:22.730Z,101823.66
2022-12-03T08:47:52.964Z,101828.31
2022-12-03T08:50:31.914Z,101823.72
2022-12-03T08:53:35.896Z,101825.78
2022-12-03T08:56:37.006Z,101817.13
2022-12-03T08:59:32.610Z,101838.81
2022-12-03T09:02:00.422Z,101832.78
2022-12-03T09:04:39.175Z,101841.94
2022-12-03T09:07:06.588Z,101833.06
2022-12-03T09:09:37.136Z,101820.91
2022-12-03T09:12:07.238Z,101828.25
2022-12-03T09:14:35.099Z,101815.03
2022-12-03T09:17:16.276Z,101815.34
2022-12-03T09:19:47.023Z,101822.50
2022-12-03T09:22:17.987Z,101818.69
2022-12-03T09:24:48.828Z,101824.59
2022-12-03T09:27:22.041Z,101817.34
2022-12-03T09:29:50.078Z,101822.53
2022-12-03T09:32:19.071Z,101829.03
2022-12-03T09:34:46.599Z,101819.50
2022-12-03T09:37:14.138Z,101828.53
2022-12-03T09:39:41.405Z,101828.44
2022-12-03T09:42:09.811Z,101822.59
2022-12-03T09:44:37.809Z,101835.31
2022-12-03T09:47:05.592Z,101808.00
2022-12-03T09:49:37.390Z,101808.44
2022-12-03T09:52:06.381Z,101826.44
2022-12-03T09:54:34.747Z,101821.25
2022-12-03T09:57:04.447Z,101811.75
2022-12-03T09:59:34.889Z,101824.66
2022-12-03T10:02:02.979Z,101849.59
2022-12-03T10:04:31.096Z,101810.25
2022-12-03T10:06:59.155Z,101813.09
2022-12-03T10:09:29.674Z,101808.75
2022-12-03T10:11:59.174Z,101819.97
2022-12-03T10:14:28.069Z,101832.78
2022-12-03T10:16:56.296Z,101803.84
2022-12-03T10:19:31.993Z,101820.06
2022-12-03T10:21:59.520Z,101812.59
2022-12-03T10:24:30.623Z,101827.31
2022-12-03T10:27:17.237Z,101813.69
2022-12-03T10:29:54.964Z,101818.69
2022-12-03T10:32:39.411Z,101817.75
2022-12-03T10:35:28.663Z,101823.25
2022-12-03T10:38:04.573Z,101815.56
2022-12-03T10:40:36.254Z,101819.34
2022-12-03T10:43:18.740Z,101815.38
2022-12-03T10:45:47.079Z,101831.81
2022-12-03T10:48:20.155Z,101830.97
2022-12-03T10:50:52.032Z,101829.28
2022-12-03T10:53:21.877Z,101837.09
2022-12-03T10:55:51.978Z,101839.00
2022-12-03T10:58:25.035Z,101830.22
2022-12-03T11:00:54.155Z,101814.28
2022-12-03T11:03:26.538Z,101839.88
2022-12-03T11:05:57.954Z,101826.75
2022-12-03T11:08:34.338Z,101776.84
2022-12-03T11:11:17.758Z,101831.94
2022-12-03T11:13:54.118Z,101834.56
2022-12-03T11:16:42.171Z,101829.75
2022-12-03T11:19:45.629Z,101835.78
2022-12-03T11:22:18.034Z,101828.88
2022-12-03T11:25:38.483Z,101838.63
2022-12-03T11:28:15.691Z,101838.63
2022-12-03T11:33:40.535Z,101843.06
2022-12-03T11:36:12.818Z,101810.88
2022-12-03T11:38:53.328Z,101793.47
2022-12-03T11:41:35.406Z,101815.34
2022-12-03T11:44:29.981Z,101827.00
2022-12-03T11:46:58.514Z,101836.91
2022-12-03T11:49:31.159Z,101820.16
2022-12-03T11:52:00.690Z,101820.91
2022-12-03T11:54:31.751Z,101828.25
2022-12-03T11:56:58.938Z,101818.91
2022-12-03T11:59:27.829Z,101820.91
2022-12-03T12:01:55.226Z,101829.59
2022-12-03T12:04:28.499Z,101828.63
2022-12-03T12:06:55.922Z,101835.16
2022-12-03T12:09:49.942Z,101837.22
2022-12-03T12:12:30.731Z,101838.06
2022-12-03T12:14:59.664Z,101814.03
2022-12-03T12:17:35.877Z,101831.84
2022-12-03T12:20:26.387Z,101838.31
2022-12-03T12:22:55.319Z,101832.88
2022-12-03T12:25:36.765Z,101842.22
2022-12-03T12:28:04.023Z,101822.41
2022-12-03T12:30:31.374Z,101822.84
2022-12-03T12:33:11.446Z,101787.09
2022-12-03T12:35:38.769Z,101844.19
2022-12-03T12:38:14.299Z,101829.91
2022-12-03T12:40:45.376Z,101831.25
2022-12-03T12:43:16.453Z,101836.34
2022-12-03T12:45:47.212Z,101833.03
2022-12-03T12:48:26.241Z,101841.91
2022-12-03T12:50:58.743Z,101822.97
2022-12-03T12:53:29.664Z,101842.22
2022-12-03T12:56:13.511Z,101809.06
2022-12-03T12:58:42.411Z,101839.47
2022-12-03T13:01:21.934Z,101851.72
2022-12-03T13:03:53.433Z,101819.50
2022-12-03T13:06:36.304Z,101828.94
2022-12-03T13:09:03.868Z,101836.16
2022-12-03T13:11:58.871Z,101832.19
2022-12-03T13:14:37.359Z,101837.03
2022-12-03T13:17:19.000Z,101811.09
2022-12-03T13:19:48.625Z,101834.88
2022-12-03T13:22:25.820Z,101842.22
2022-12-03T13:24:59.554Z,101833.44
2022-12-03T13:27:33.036Z,101845.50
2022-12-03T13:30:17.723Z,101843.59
2022-12-03T13:32:45.865Z,101826.84
2022-12-03T13:35:24.224Z,101830.34
2022-12-03T13:37:51.631Z,101854.56
2022-12-03T13:40:31.022Z,101843.16
2022-12-03T13:42:59.758Z,101843.16
2022-12-03T13:45:44.015Z,101849.84
2022-12-03T13:48:29.627Z,101856.66
2022-12-03T13:51:00.537Z,101850.53
2022-12-03T13:53:33.981Z,101818.28
2022-12-03T13:56:22.637Z,101830.88
2022-12-03T13:58:50.617Z,101859.84
2022-12-03T14:01:18.330Z,101843.13
2022-12-03T14:03:50.708Z,101844.44
2022-12-03T14:06:18.307Z,101837.34
2022-12-03T14:08:45.431Z,101837.78
2022-12-03T14:11:32.808Z,101838.81
2022-12-03T14:13:59.970Z,101839.44
2022-12-03T14:16:27.122Z,101841.78
2022-12-03T14:18:54.492Z,101827.63
2022-12-03T14:21:21.703Z,101861.06
2022-12-03T14:23:48.810Z,101842.22
2022-12-03T14:26:16.017Z,101838.69
2022-12-03T14:28:43.723Z,101842.88
2022-12-03T14:31:11.495Z,101840.63
2022-12-03T14:33:39.424Z,101870.16
2022-12-03T14:36:07.127Z,101838.53
2022-12-03T14:38:34.478Z,101809.31
2022-12-03T14:41:01.757Z,101867.19
2022-12-03T14:43:29.309Z,101842.78
2022-12-03T14:45:56.681Z,101884.31
2022-12-03T14:48:23.833Z,101853.94
2022-12-03T14:50:51.023Z,101868.34
2022-12-03T14:53:26.913Z,101863.78
2022-12-03T14:55:55.907Z,101863.16
2022-12-03T14:58:22.913Z,101878.81
2022-12-03T15:00:50.071Z,101856.00
2022-12-03T15:03:17.064Z,101854.94
2022-12-03T15:05:44.084Z,101839.94
2022-12-03T15:08:11.167Z,101874.28
2022-12-03T15:10:38.205Z,101867.19
2022-12-03T15:13:05.304Z,101861.03
2022-12-03T15:15:36.163Z,101876.72
2022-12-03T15:18:06.342Z,101866.56
2022-12-03T15:20:43.080Z,101857.34
2022-12-03T15:23:14.711Z,101832.41
2022-12-03T15:25:43.096Z,101839.25
2022-12-03T15:28:11.480Z,101865.63
2022-12-03T15:30:39.330Z,101853.31
2022-12-03T15:33:11.082Z,101858.25
2022-12-03T15:35:53.322Z,101871.81
2022-12-03T15:38:20.830Z,101865.44
2022-12-03T15:40:48.152Z,101864.69
2022-12-03T15:43:16.282Z,101877.50
2022-12-03T15:45:45.873Z,101878.34
2022-12-03T15:48:14.180Z,101876.56
2022-12-03T15:50:41.309Z,101883.63
2022-12-03T15:53:13.782Z,101867.78
2022-12-03T15:55:42.040Z,101867.78
2022-12-03T15:58:09.128Z,101855.22
2022-12-03T16:00:36.068Z,101872.31
2022-12-03T16:03:03.168Z,101876.91
2022-12-03T16:05:30.459Z,101866.44
2022-12-03T16:07:57.565Z,101858.06
2022-12-03T16:10:24.602Z,101880.19
2022-12-03T16:12:51.683Z,101891.72
2022-12-03T16:15:23.559Z,101870.41
2022-12-03T16:17:53.812Z,101884.19
2022-12-03T16:20:20.972Z,101863.34
2022-12-03T16:22:48.053Z,101872.00
2022-12-03T16:25:15.154Z,101879.53
2022-12-03T16:27:42.181Z,101877.25
2022-12-03T16:30:09.986Z,101886.97
2022-12-03T16:32:37.223Z,101885.81
2022-12-03T16:35:04.820Z,101880.41
2022-12-03T16:37:32.025Z,101872.31
2022-12-03T16:39:59.003Z,101901.69
2022-12-03T16:42:27.382Z,101875.00
2022-12-03T16:44:54.294Z,101885.03
2022-12-03T16:47:26.974Z,101893.13
2022-12-03T16:49:57.591Z,101882.25
2022-12-03T16:52:25.321Z,101894.38
2022-12-03T16:54:52.314Z,101892.75
2022-12-03T16:57:19.277Z,101895.00
2022-12-03T16:59:46.376Z,101879.50
2022-12-03T17:02:13.827Z,101899.97
2022-12-03T17:04:40.997Z,101888.56
2022-12-03T17:07:08.347Z,101891.31
2022-12-03T17:09:37.864Z,101893.97
2022-12-03T17:12:06.373Z,101897.94
2022-12-03T17:14:33.676Z,101890.56
2022-12-03T17:17:04.384Z,101881.22
2022-12-03T17:19:32.504Z,101900.66
2022-12-03T17:21:59.937Z,101914.13
2022-12-03T17:24:27.024Z,101906.81
2022-12-03T17:26:54.149Z,101908.19
2022-12-03T17:29:21.201Z,101905.38
2022-12-03T17:31:48.435Z,101900.09
2022-12-03T17:34:15.732Z,101915.00
2022-12-03T17:37:05.365Z,101906.63
2022-12-03T17:40:24.966Z,101911.06
2022-12-03T17:43:10.556Z,101907.75
2022-12-03T17:49:16.531Z,101916.88
2022-12-03T17:51:43.834Z,101906.06
2022-12-03T17:54:11.174Z,101912.94
2022-12-03T17:56:39.532Z,101916.34
2022-12-03T17:59:06.627Z,101912.09
2022-12-03T18:01:33.813Z,101915.47
2022-12-03T18:04:01.032Z,101911.69
2022-12-03T18:06:28.387Z,101899.44
2022-12-03T18:09:06.232Z,101893.59
2022-12-03T18:14:58.505Z,101904.06
2022-12-03T18:17:32.055Z,101934.53
2022-12-03T18:19:59.326Z,101875.88
2022-12-03T18:22:27.837Z,101879.94
2022-12-03T18:24:56.110Z,101922.78
2022-12-03T18:27:24.752Z,101901.44
2022-12-03T18:29:52.429Z,101926.81
2022-12-03T18:32:28.810Z,101911.31
2022-12-03T18:34:58.011Z,101909.81
2022-12-03T18:37:29.801Z,101940.41
2022-12-03T18:39:58.352Z,101879.75
2022-12-03T18:42:26.442Z,101915.00
2022-12-03T18:44:57.175Z,101929.47
2022-12-03T18:47:27.714Z,101907.19
2022-12-03T18:49:55.791Z,101932.41
2022-12-03T18:52:25.585Z,101927.88
2022-12-03T18:55:07.689Z,101933.53
2022-12-03T18:57:34.716Z,101932.09
2022-12-03T19:00:13.080Z,101935.22
2022-12-03T19:05:29.419Z,101946.69
2022-12-03T19:07:56.754Z,101945.84
2022-12-03T19:10:24.643Z,101942.94
2022-12-03T19:12:51.771Z,101952.28
2022-12-03T19:15:19.047Z,101950.03
2022-12-03T19:17:50.367Z,101932.56
2022-12-03T19:20:17.559Z,101929.63
2022-12-03T19:22:44.593Z,101948.22
2022-12-03T19:25:11.713Z,101947.72
2022-12-03T19:27:40.093Z,101956.25
2022-12-03T19:30:08.114Z,101933.22
2022-12-03T19:32:35.809Z,101941.25
2022-12-03T19:35:05.397Z,101933.31
2022-12-03T19:37:33.757Z,101948.13
2022-12-03T19:40:01.258Z,101948.03
2022-12-03T19:42:28.800Z,101955.28
2022-12-03T19:44:55.854Z,101943.13
2022-12-03T19:47:24.888Z,101936.13
2022-12-03T19:49:54.041Z,101949.63
2022-12-03T19:52:21.206Z,101937.66
2022-12-03T19:54:48.381Z,101929.44
2022-12-03T19:57:19.788Z,101939.44
2022-12-03T19:59:53.416Z,101928.38
2022-12-03T20:02:23.388Z,101940.47
2022-12-03T20:04:54.005Z,101938.09
2022-12-03T20:07:22.270Z,101935.84
2022-12-03T20:09:53.983Z,101941.44
2022-12-03T20:12:21.609Z,101940.47
2022-12-03T20:14:52.269Z,101949.28
2022-12-03T20:17:20.582Z,101950.13
2022-12-03T20:19:48.328Z,101918.78
2022-12-03T20:22:15.549Z,101943.91
2022-12-03T20:24:43.135Z,101953.41
2022-12-03T20:27:10.697Z,101934.28
2022-12-03T20:29:37.880Z,101951.50
2022-12-03T20:32:07.138Z,101958.72
2022-12-03T20:34:37.128Z,101952.81
2022-12-03T20:37:04.202Z,101962.19
2022-12-03T20:39:31.924Z,101964.94
2022-12-03T20:41:58.987Z,101952.75
2022-12-03T20:44:25.927Z,101976.34
2022-12-03T20:46:53.117Z,101943.19
2022-12-03T20:49:20.257Z,101969.09
2022-12-03T20:51:50.261Z,101951.63
2022-12-03T20:54:17.278Z,101949.84
2022-12-03T20:56:44.243Z,101947.00
2022-12-03T20:59:14.059Z,101943.03
2022-12-03T21:01:42.424Z,101936.22
2022-12-03T21:04:13.782Z,101962.00
2022-12-03T21:06:42.523Z,101943.19
2022-12-03T21:09:11.243Z,101953.50
2022-12-03T21:11:41.804Z,101948.22
2022-12-03T21:14:11.289Z,101957.25
2022-12-03T21:17:07.413Z,101953.00
2022-12-03T21:19:31.845Z,101956.50
2022-12-03T21:21:58.857Z,101938.06
2022-12-03T21:24:26.101Z,101952.25
2022-12-03T21:26:53.583Z,101948.13
2022-12-03T21:29:20.707Z,101953.72
2022-12-03T21:31:47.846Z,101948.56
2022-12-03T21:34:15.154Z,101951.81
2022-12-03T21:36:42.359Z,101936.59
2022-12-03T21:39:09.784Z,101935.66
2022-12-03T21:41:36.949Z,101936.22
2022-12-03T21:44:09.952Z,101940.75
2022-12-03T21:47:10.255Z,101937.34
2022-12-03T21:49:24.092Z,101940.88
2022-12-03T21:51:51.489Z,101947.94
2022-12-03T21:54:27.312Z,101939.56
2022-12-03T21:57:04.204Z,101918.91
2022-12-03T21:59:31.878Z,101955.19
2022-12-03T22:01:59.247Z,101914.00
2022-12-03T22:04:26.666Z,101925.84
2022-12-03T22:06:55.031Z,101945.41
2022-12-03T22:09:26.429Z,101949.53
2022-12-03T22:11:57.034Z,101941.53
2022-12-03T22:14:24.139Z,101949.06
2022-12-03T22:16:51.286Z,101922.16
2022-12-03T22:19:18.421Z,101938.69
2022-12-03T22:21:46.945Z,101910.88
2022-12-03T22:24:14.341Z,101928.16
2022-12-03T22:26:41.658Z,101941.34
2022-12-03T22:29:11.306Z,101938.63
2022-12-03T22:31:39.241Z,101912.09
2022-12-03T22:34:06.791Z,101912.94
2022-12-03T22:36:34.907Z,101927.25
2022-12-03T22:39:02.082Z,101936.69
2022-12-03T22:41:29.431Z,101916.97
2022-12-03T22:43:56.628Z,101901.91
2022-12-03T22:46:23.941Z,101911.69
2022-12-03T22:48:51.253Z,101915.38
2022-12-03T22:51:24.417Z,101936.81
2022-12-03T22:53:56.392Z,101947.56
2022-12-03T22:56:24.102Z,101948.78
2022-12-03T22:58:51.302Z,101950.28
2022-12-03T23:01:26.822Z,101942.63
2022-12-03T23:03:54.560Z,101940.75
2022-12-03T23:06:22.436Z,101961.88
2022-12-03T23:08:50.197Z,101951.22
2022-12-03T23:11:17.859Z,101945.84
2022-12-03T23:13:44.883Z,101929.72
2022-12-03T23:16:22.490Z,101959.75
2022-12-03T23:18:50.270Z,101945.28
2022-12-03T23:21:23.927Z,101932.47
